createdAt,value
2019-02-28T04:52:55.913Z,2.52
2019-02-28T04:55:24.209Z,2.55
2019-02-28T04:57:52.599Z,2.66
2019-02-28T05:00:21.197Z,2.81
2019-02-28T05:02:53.853Z,2.84
2019-02-28T05:05:20.008Z,2.99
2019-02-28T05:07:48.327Z,3.25
2019-02-28T05:10:19.210Z,3.49
2019-02-28T05:12:47.647Z,3.46
2019-02-28T05:15:16.218Z,3.50
2019-02-28T05:17:44.803Z,3.65
2019-02-28T05:20:14.744Z,3.43
2019-02-28T05:22:44.688Z,3.68
2019-02-28T05:25:17.995Z,3.67
2019-02-28T05:27:45.088Z,3.76
2019-02-28T05:30:17.908Z,3.75
2019-02-28T05:32:45.131Z,3.67
2019-02-28T05:35:13.721Z,3.74
2019-02-28T05:37:46.656Z,3.53
2019-02-28T05:40:15.825Z,3.68
2019-02-28T05:42:44.355Z,3.67
2019-02-28T05:45:15.780Z,3.78
2019-02-28T05:47:46.857Z,3.69
2019-02-28T05:50:16.827Z,3.89
2019-02-28T05:52:44.611Z,3.81
2019-02-28T05:55:13.078Z,3.78
2019-02-28T05:57:43.275Z,3.48
2019-02-28T06:00:15.498Z,3.59
2019-02-28T06:02:43.826Z,3.62
2019-02-28T06:05:12.809Z,3.71
2019-02-28T06:07:41.412Z,3.76
2019-02-28T06:10:12.491Z,3.71
2019-02-28T06:12:43.755Z,3.65
2019-02-28T06:15:13.366Z,3.45
2019-02-28T06:17:41.723Z,3.62
2019-02-28T06:20:16.309Z,3.58
2019-02-28T06:22:43.907Z,3.55
2019-02-28T06:25:22.617Z,3.70
2019-02-28T06:27:48.939Z,3.93
2019-02-28T06:30:15.455Z,3.84
2019-02-28T06:32:43.893Z,3.71
2019-02-28T06:35:15.974Z,3.71
2019-02-28T06:37:43.108Z,3.86
2019-02-28T06:40:17.600Z,4.03
2019-02-28T06:42:47.448Z,4.07
2019-02-28T06:45:17.202Z,4.11
2019-02-28T06:47:49.349Z,4.23
2019-02-28T06:50:16.294Z,4.31
2019-02-28T06:52:44.634Z,4.28
2019-02-28T06:55:21.160Z,4.27
2019-02-28T06:57:51.243Z,4.33
2019-02-28T07:00:19.619Z,4.29
2019-02-28T07:02:50.067Z,4.19
2019-02-28T07:05:18.149Z,4.37
2019-02-28T07:07:49.081Z,4.55
2019-02-28T07:10:20.249Z,7.17
2019-02-28T07:12:48.578Z,10.65
2019-02-28T07:15:16.975Z,12.24
2019-02-28T07:17:46.396Z,14.04
2019-02-28T07:20:19.189Z,15.10
2019-02-28T07:22:47.917Z,16.14
2019-02-28T07:25:16.356Z,16.02
2019-02-28T07:27:44.737Z,16.02
2019-02-28T07:30:20.300Z,16.77
2019-02-28T07:32:48.686Z,16.79
2019-02-28T07:35:18.069Z,18.07
2019-02-28T07:37:46.491Z,18.79
2019-02-28T07:40:17.078Z,19.22
2019-02-28T07:42:46.098Z,19.07
2019-02-28T07:45:17.071Z,19.44
2019-02-28T07:47:45.466Z,19.90
2019-02-28T07:50:14.926Z,20.27
2019-02-28T07:52:43.225Z,21.09
2019-02-28T07:55:14.404Z,21.70
2019-02-28T07:57:42.869Z,21.86
2019-02-28T08:00:20.330Z,22.79
2019-02-28T08:02:48.713Z,23.58
2019-02-28T08:05:17.492Z,23.58
2019-02-28T08:07:50.238Z,24.91
2019-02-28T08:10:24.278Z,23.68
2019-02-28T08:12:52.596Z,24.21
2019-02-28T08:15:25.949Z,25.45
2019-02-28T08:17:54.304Z,25.97
2019-02-28T08:20:23.061Z,26.06
2019-02-28T08:22:51.510Z,26.30
2019-02-28T08:25:19.825Z,26.49
2019-02-28T08:27:48.204Z,26.52
2019-02-28T08:30:28.317Z,27.16
2019-02-28T08:32:56.672Z,27.32
2019-02-28T08:35:25.042Z,27.70
2019-02-28T08:37:57.064Z,27.02
2019-02-28T08:40:26.693Z,28.96
2019-02-28T08:42:55.372Z,29.66
2019-02-28T08:45:24.231Z,29.62
2019-02-28T08:47:56.592Z,28.49
2019-02-28T08:50:24.051Z,27.93
2019-02-28T08:53:01.190Z,27.96
2019-02-28T08:55:30.333Z,28.00
2019-02-28T08:58:05.348Z,28.42
2019-02-28T09:00:32.847Z,28.79
2019-02-28T09:03:00.730Z,28.14
2019-02-28T09:05:30.060Z,28.59
2019-02-28T09:07:58.668Z,28.41
2019-02-28T09:10:27.330Z,27.34
2019-02-28T09:12:55.907Z,28.11
2019-02-28T09:15:30.048Z,29.18
2019-02-28T09:17:58.176Z,28.75
2019-02-28T09:20:24.622Z,29.00
2019-02-28T09:22:53.107Z,28.01
2019-02-28T09:25:22.897Z,28.57
2019-02-28T09:27:51.407Z,28.24
2019-02-28T09:30:42.870Z,27.74
2019-02-28T09:33:11.488Z,28.91
2019-02-28T09:35:45.258Z,28.08
2019-02-28T09:38:13.366Z,28.07
2019-02-28T09:40:41.241Z,29.25
2019-02-28T09:43:09.910Z,29.42
2019-02-28T09:45:39.960Z,28.78
2019-02-28T09:48:08.595Z,29.48
2019-02-28T09:50:36.898Z,30.03
2019-02-28T09:53:05.311Z,29.82
2019-02-28T09:55:35.285Z,29.60
2019-02-28T09:58:04.100Z,28.95
2019-02-28T10:00:32.566Z,28.76
2019-02-28T10:03:01.137Z,28.23
2019-02-28T10:05:29.733Z,29.41
2019-02-28T10:08:01.608Z,27.91
2019-02-28T10:10:30.809Z,28.63
2019-02-28T10:12:59.229Z,28.87
2019-02-28T10:15:27.793Z,28.05
2019-02-28T10:17:56.089Z,28.67
2019-02-28T10:20:28.202Z,29.95
2019-02-28T10:22:56.458Z,30.29
2019-02-28T10:25:24.788Z,30.85
2019-02-28T10:27:54.664Z,30.06
2019-02-28T10:30:31.784Z,29.67
2019-02-28T10:32:55.296Z,28.89
2019-02-28T10:35:23.739Z,28.60
2019-02-28T10:37:57.330Z,27.62
2019-02-28T10:40:25.600Z,28.02
2019-02-28T10:42:54.059Z,27.06
2019-02-28T10:45:23.341Z,28.99
2019-02-28T10:47:51.913Z,28.43
2019-02-28T10:50:23.716Z,29.71
2019-02-28T10:52:52.258Z,30.03
2019-02-28T10:55:22.447Z,30.21
2019-02-28T10:57:51.822Z,30.02
2019-02-28T11:00:36.080Z,30.45
2019-02-28T11:03:04.536Z,30.84
2019-02-28T11:05:35.352Z,32.02
2019-02-28T11:08:04.623Z,31.19
2019-02-28T11:10:41.208Z,32.28
2019-02-28T11:13:18.717Z,32.71
2019-02-28T11:15:48.421Z,33.26
2019-02-28T11:18:17.849Z,31.99
2019-02-28T11:20:46.223Z,32.77
2019-02-28T11:23:15.746Z,33.84
2019-02-28T11:25:44.974Z,32.32
2019-02-28T11:28:14.190Z,33.12
2019-02-28T11:30:45.361Z,33.18
2019-02-28T11:33:14.647Z,33.87
2019-02-28T11:35:42.994Z,33.60
2019-02-28T11:38:11.963Z,32.59
2019-02-28T11:40:43.619Z,33.31
2019-02-28T11:43:10.568Z,34.00
2019-02-28T11:45:48.514Z,34.88
2019-02-28T11:48:20.424Z,35.07
2019-02-28T11:50:49.542Z,34.31
2019-02-28T11:53:19.143Z,33.16
2019-02-28T11:55:47.715Z,29.86
2019-02-28T11:58:17.729Z,29.59
2019-02-28T12:00:46.344Z,29.42
2019-02-28T12:03:14.802Z,29.69
2019-02-28T12:05:43.328Z,30.68
2019-02-28T12:08:11.632Z,30.02
2019-02-28T12:10:40.055Z,30.29
2019-02-28T12:13:08.589Z,28.15
2019-02-28T12:15:39.338Z,26.89
2019-02-28T12:18:07.668Z,25.82
2019-02-28T12:20:35.979Z,26.30
2019-02-28T12:23:04.371Z,25.72
2019-02-28T12:25:32.911Z,25.28
2019-02-28T12:28:02.585Z,27.21
2019-02-28T12:30:32.936Z,28.52
2019-02-28T12:33:01.222Z,29.67
2019-02-28T12:35:29.574Z,30.58
2019-02-28T12:37:57.867Z,29.33
2019-02-28T12:40:31.693Z,27.79
2019-02-28T12:43:00.089Z,27.24
2019-02-28T12:45:34.306Z,28.68
2019-02-28T12:48:02.722Z,29.39
2019-02-28T12:50:31.199Z,30.32
2019-02-28T12:52:59.564Z,28.80
2019-02-28T12:55:28.033Z,29.47
2019-02-28T12:57:57.919Z,29.76
2019-02-28T13:00:32.123Z,30.66
2019-02-28T13:03:00.424Z,30.94
2019-02-28T13:05:28.835Z,30.60
2019-02-28T13:07:57.296Z,29.68
2019-02-28T13:10:27.920Z,27.79
2019-02-28T13:13:05.755Z,27.30
2019-02-28T13:15:26.521Z,26.44
2019-02-28T13:17:55.053Z,26.59
2019-02-28T13:20:33.685Z,26.18
2019-02-28T13:23:02.804Z,25.81
2019-02-28T13:25:31.108Z,25.59
2019-02-28T13:27:59.504Z,25.36
2019-02-28T13:30:28.528Z,24.97
2019-02-28T13:32:57.132Z,24.68
2019-02-28T13:35:31.688Z,25.03
2019-02-28T13:38:00.117Z,24.83
2019-02-28T13:40:28.441Z,24.43
2019-02-28T13:42:56.770Z,24.46
2019-02-28T13:45:26.009Z,24.18
2019-02-28T13:47:54.486Z,24.53
2019-02-28T13:50:25.900Z,24.75
2019-02-28T13:52:55.678Z,25.50
2019-02-28T13:55:24.528Z,24.68
2019-02-28T13:57:53.010Z,24.97
2019-02-28T14:00:32.215Z,25.29
2019-02-28T14:03:11.576Z,24.92
2019-02-28T14:05:41.599Z,25.26
2019-02-28T14:08:12.145Z,24.97
2019-02-28T14:10:40.731Z,24.92
2019-02-28T14:13:09.440Z,24.81
2019-02-28T14:15:40.361Z,24.54
2019-02-28T14:18:10.945Z,24.10
2019-02-28T14:20:38.922Z,23.69
2019-02-28T14:23:07.560Z,23.44
2019-02-28T14:25:36.351Z,23.40
2019-02-28T14:28:06.172Z,23.13
2019-02-28T14:30:34.612Z,22.68
2019-02-28T14:33:03.074Z,22.91
2019-02-28T14:35:35.158Z,22.76
2019-02-28T14:38:01.859Z,22.66
2019-02-28T14:40:30.609Z,22.44
2019-02-28T14:42:59.051Z,22.25
2019-02-28T14:45:29.462Z,22.07
2019-02-28T14:48:00.880Z,22.05
2019-02-28T14:50:28.063Z,22.04
2019-02-28T14:52:57.722Z,21.98
2019-02-28T14:55:26.107Z,21.94
2019-02-28T14:57:55.243Z,21.63
2019-02-28T15:00:32.269Z,21.55
2019-02-28T15:03:02.761Z,21.27
2019-02-28T15:05:34.750Z,21.31
2019-02-28T15:08:03.358Z,21.18
2019-02-28T15:10:34.215Z,21.10
2019-02-28T15:13:01.958Z,21.03
2019-02-28T15:15:30.436Z,20.85
2019-02-28T15:17:58.842Z,20.72
2019-02-28T15:20:31.534Z,20.38
2019-02-28T15:22:59.612Z,20.35
2019-02-28T15:25:29.619Z,20.30
2019-02-28T15:27:58.007Z,20.25
2019-02-28T15:30:34.979Z,20.24
2019-02-28T15:33:03.482Z,20.12
2019-02-28T15:35:31.938Z,20.10
2019-02-28T15:38:00.348Z,19.91
2019-02-28T15:40:40.600Z,19.95
2019-02-28T15:43:09.176Z,19.65
2019-02-28T15:45:37.535Z,19.63
2019-02-28T15:48:05.967Z,19.78
2019-02-28T15:50:34.494Z,19.64
2019-02-28T15:53:02.987Z,19.61
2019-02-28T15:55:35.136Z,19.47
2019-02-28T15:58:02.688Z,19.42
2019-02-28T16:00:33.841Z,19.46
2019-02-28T16:03:03.081Z,19.39
2019-02-28T16:05:31.492Z,19.07
2019-02-28T16:08:00.296Z,19.03
2019-02-28T16:10:33.907Z,19.04
2019-02-28T16:13:02.427Z,18.97
2019-02-28T16:15:30.794Z,18.93
2019-02-28T16:17:59.250Z,18.47
2019-02-28T16:20:28.507Z,18.20
2019-02-28T16:22:57.819Z,18.27
2019-02-28T16:25:32.060Z,17.94
2019-02-28T16:28:00.500Z,17.83
2019-02-28T16:30:32.148Z,17.78
2019-02-28T16:32:59.525Z,17.57
2019-02-28T16:35:29.051Z,17.34
2019-02-28T16:37:58.109Z,17.49
2019-02-28T16:40:28.378Z,17.30
2019-02-28T16:42:56.849Z,17.31
2019-02-28T16:45:30.868Z,17.30
2019-02-28T16:48:03.035Z,17.03
2019-02-28T16:50:31.100Z,16.97
2019-02-28T16:52:59.822Z,17.07
2019-02-28T16:55:30.942Z,17.13
2019-02-28T16:57:58.639Z,16.89
2019-02-28T17:00:27.329Z,16.92
2019-02-28T17:02:55.743Z,16.67
2019-02-28T17:05:28.029Z,16.58
2019-02-28T17:07:54.497Z,16.56
2019-02-28T17:10:36.483Z,16.35
2019-02-28T17:13:12.964Z,16.28
2019-02-28T17:15:52.000Z,15.95
2019-02-28T17:18:27.313Z,15.95
2019-02-28T17:20:56.169Z,15.70
2019-02-28T17:23:24.943Z,15.70
2019-02-28T17:25:56.532Z,15.69
2019-02-28T17:28:41.650Z,15.81
2019-02-28T17:31:13.324Z,15.68
2019-02-28T17:33:43.385Z,15.60
2019-02-28T17:36:16.167Z,15.39
2019-02-28T17:38:46.006Z,15.34
2019-02-28T17:41:14.952Z,15.19
2019-02-28T17:43:46.826Z,15.07
2019-02-28T17:46:18.424Z,15.02
2019-02-28T17:49:02.575Z,14.93
2019-02-28T17:51:34.485Z,14.92
2019-02-28T17:54:09.344Z,14.77
2019-02-28T17:56:54.088Z,14.58
2019-02-28T17:59:45.360Z,14.56
2019-02-28T18:02:50.242Z,14.59
2019-02-28T18:05:33.819Z,14.35
2019-02-28T18:08:38.447Z,14.37
2019-02-28T18:11:39.715Z,14.87
2019-02-28T18:14:20.570Z,14.66
2019-02-28T18:16:54.565Z,14.28
2019-02-28T18:20:03.633Z,14.23
2019-02-28T18:22:44.268Z,14.00
2019-02-28T18:25:29.572Z,14.12
2019-02-28T18:28:23.637Z,13.81
2019-02-28T18:31:14.674Z,13.67
2019-02-28T18:34:10.070Z,13.54
2019-02-28T18:36:43.350Z,13.56
2019-02-28T18:39:12.447Z,13.37
2019-02-28T18:41:43.330Z,13.01
2019-02-28T18:44:14.998Z,13.46
2019-02-28T18:46:44.232Z,13.41
2019-02-28T18:49:12.687Z,13.44
2019-02-28T18:51:41.326Z,13.36
2019-02-28T18:54:10.018Z,13.03
2019-02-28T18:56:38.386Z,13.15
2019-02-28T18:59:07.156Z,13.04
2019-02-28T19:01:35.786Z,12.83
2019-02-28T19:04:04.614Z,12.63
2019-02-28T19:06:34.126Z,12.66
2019-02-28T19:09:04.453Z,12.78
2019-02-28T19:11:33.531Z,12.83
2019-02-28T19:14:03.449Z,12.56
2019-02-28T19:16:34.084Z,12.74
2019-02-28T19:19:02.927Z,12.78
2019-02-28T19:21:31.581Z,12.61
2019-02-28T19:24:00.528Z,12.82
2019-02-28T19:26:30.731Z,12.75
2019-02-28T19:28:59.507Z,12.66
2019-02-28T19:31:29.885Z,12.78
2019-02-28T19:33:58.650Z,12.73
2019-02-28T19:36:27.583Z,12.46
2019-02-28T19:38:57.606Z,12.19
2019-02-28T19:41:26.428Z,12.23
2019-02-28T19:43:55.062Z,12.37
2019-02-28T19:46:23.966Z,12.23
2019-02-28T19:48:53.429Z,12.41
2019-02-28T19:51:22.333Z,12.66
2019-02-28T19:53:51.655Z,12.64
2019-02-28T19:56:20.321Z,12.52
2019-02-28T19:58:49.163Z,12.54
2019-02-28T20:01:19.274Z,12.32
2019-02-28T20:03:49.569Z,12.29
2019-02-28T20:06:21.719Z,12.41
2019-02-28T20:08:52.915Z,12.66
2019-02-28T20:11:21.487Z,12.74
2019-02-28T20:13:49.960Z,12.78
2019-02-28T20:16:18.529Z,12.78
2019-02-28T20:18:47.012Z,12.77
2019-02-28T20:21:15.557Z,12.73
2019-02-28T20:23:44.067Z,12.81
2019-02-28T20:26:12.468Z,12.76
2019-02-28T20:28:40.860Z,12.77
2019-02-28T20:31:09.308Z,12.69
2019-02-28T20:33:37.801Z,12.68
2019-02-28T20:36:06.226Z,12.64
2019-02-28T20:38:34.749Z,12.58
2019-02-28T20:41:03.183Z,12.59
2019-02-28T20:43:31.680Z,12.60
2019-02-28T20:46:00.025Z,12.46
2019-02-28T20:48:28.426Z,12.50
2019-02-28T20:50:56.904Z,12.46
2019-02-28T20:53:25.500Z,12.47
2019-02-28T20:55:53.925Z,12.38
2019-02-28T20:58:22.370Z,12.38
2019-02-28T21:00:50.841Z,12.50
2019-02-28T21:03:19.214Z,12.53
2019-02-28T21:05:47.604Z,12.22
2019-02-28T21:08:16.075Z,12.46
2019-02-28T21:10:44.469Z,12.33
2019-02-28T21:13:13.061Z,12.32
2019-02-28T21:15:41.428Z,12.29
2019-02-28T21:18:09.809Z,12.31
2019-02-28T21:20:38.142Z,12.35
2019-02-28T21:23:06.578Z,12.38
2019-02-28T21:25:35.169Z,12.20
2019-02-28T21:28:03.503Z,12.04
2019-02-28T21:30:31.943Z,12.31
2019-02-28T21:33:00.258Z,12.41
2019-02-28T21:35:28.746Z,12.37
2019-02-28T21:37:57.062Z,12.37
2019-02-28T21:40:25.543Z,12.22
2019-02-28T21:42:54.210Z,12.20
2019-02-28T21:45:26.681Z,12.04
2019-02-28T21:47:55.157Z,12.08
2019-02-28T21:50:23.598Z,12.07
2019-02-28T21:52:52.047Z,11.90
2019-02-28T21:55:20.346Z,11.84
2019-02-28T21:57:48.702Z,11.80
2019-02-28T22:00:26.134Z,11.78
2019-02-28T22:02:54.557Z,11.75
2019-02-28T22:05:22.929Z,11.90
2019-02-28T22:07:51.334Z,11.97
2019-02-28T22:10:19.707Z,11.98
2019-02-28T22:12:48.120Z,12.05
2019-02-28T22:15:23.488Z,12.03
2019-02-28T22:17:51.903Z,12.16
2019-02-28T22:20:20.188Z,11.93
2019-02-28T22:22:48.595Z,11.83
2019-02-28T22:25:17.526Z,11.86
2019-02-28T22:27:46.007Z,11.91
2019-02-28T22:30:44.490Z,11.89
2019-02-28T22:33:14.603Z,11.78
2019-02-28T22:35:44.621Z,11.69
2019-02-28T22:38:13.240Z,11.82
2019-02-28T22:40:41.570Z,11.88
2019-02-28T22:43:09.932Z,11.88
2019-02-28T22:45:38.365Z,11.66
2019-02-28T22:48:06.744Z,11.66
2019-02-28T22:50:35.121Z,11.14
2019-02-28T22:53:03.444Z,11.22
2019-02-28T22:55:31.757Z,11.10
2019-02-28T22:58:01.699Z,10.58
2019-02-28T23:00:46.850Z,10.58
2019-02-28T23:03:16.806Z,10.37
2019-02-28T23:05:45.392Z,10.47
2019-02-28T23:08:13.760Z,10.47
2019-02-28T23:10:42.142Z,10.62
2019-02-28T23:13:10.489Z,10.62
2019-02-28T23:15:38.877Z,10.64
2019-02-28T23:18:07.245Z,10.64
2019-02-28T23:20:35.737Z,10.89
2019-02-28T23:23:04.199Z,11.02
2019-02-28T23:25:32.533Z,10.90
2019-02-28T23:28:12.325Z,10.89
2019-02-28T23:31:00.598Z,10.89
2019-02-28T23:33:28.916Z,10.90
2019-02-28T23:35:57.244Z,10.95
2019-02-28T23:38:25.559Z,10.88
2019-02-28T23:40:56.278Z,10.63
2019-02-28T23:43:24.625Z,10.63
2019-02-28T23:45:52.963Z,10.75
2019-02-28T23:48:21.330Z,10.76
2019-02-28T23:50:49.704Z,10.76
2019-02-28T23:53:18.235Z,10.76
2019-02-28T23:55:46.566Z,10.87
2019-02-28T23:58:14.929Z,10.83
